Latest Weather Observations for Jandakot

IDW60901

Issued at 9:45 am WST Sunday 26 October 2014 (issued every 10 minutes, with the page automatically refreshed every 10 minutes)

About weather observations | Map of Perth area stations | Latest observations for Perth area | Other Formats
Station Details ID: 009172 Name: JANDAKOT AERO Lat: -32.10 Lon: 115.88 Height: 30.0 m
Data from the previous 72 hours. | See also: Recent months at Jandakot
Date/Time
WST
Tmp

°C
App
Tmp
°C
Dew
Point
°C
Rel
Hum
%
Delta-T

°C
Wind Press
QNH
hPa
Press
MSL
hPa
Rain
since
9 am
mm
Dir
 
Spd
km/h
Gust
km/h
Spd
kts
Gust
kts
26/09:30am 16.9 14.8 14.6 86 1.3 S 19 24 10 13 1023.0 1023.0 0.0
26/09:00am 18.5 14.7 12.4 67 3.4 W 24 33 13 18 1022.5 1022.5 1.4
26/08:30am 19.1 15.8 11.0 59 4.4 SW 19 24 10 13 1022.2 1022.2 1.4
26/08:00am 19.0 15.7 9.5 54 5.0 WSW 17 24 9 13 1021.8 1021.8 1.4
26/07:30am 17.8 15.7 11.1 65 3.6 W 13 17 7 9 1021.7 1021.7 1.4
26/07:00am 17.8 15.1 10.5 62 3.9 SW 15 20 8 11 1021.4 1021.4 1.4
26/06:30am 17.2 15.0 10.9 66 3.4 WSW 13 20 7 11 1021.1 1021.1 1.4
26/06:00am 16.7 15.3 10.9 68 3.1 WSW 9 19 5 10 1020.6 1020.6 1.4
26/05:30am 16.5 14.3 10.9 69 3.0 SW 13 17 7 9 1020.2 1020.2 1.4
26/05:00am 16.3 15.1 11.7 74 2.5 WSW 9 11 5 6 1019.9 1019.9 1.4
26/04:30am 16.6 14.3 10.6 67 3.2 SW 13 19 7 10 1019.9 1019.9 1.4
26/04:00am 16.6 14.7 10.4 67 3.3 WSW 11 19 6 10 1019.9 1019.9 1.4
26/03:30am 16.8 13.2 9.9 64 3.6 WSW 19 26 10 14 1019.7 1019.7 1.4
26/03:00am 16.9 13.2 9.6 62 3.8 WSW 19 26 10 14 1019.7 1019.7 1.4
26/02:30am 16.8 13.7 10.2 65 3.5 SW 17 26 9 14 1019.6 1019.6 1.4
26/02:00am 16.5 14.5 10.2 66 3.3 WSW 11 22 6 12 1019.7 1019.7 1.4
26/01:30am 15.9 14.0 10.4 70 2.9 SW 11 17 6 9 1019.8 1019.8 1.4
26/01:00am 16.1 13.7 10.2 68 3.1 SW 13 17 7 9 1019.8 1019.8 1.4
26/12:30am 16.4 13.9 9.7 64 3.5 WSW 13 20 7 11 1020.0 1020.0 1.4
26/12:00am 16.5 13.9 9.4 63 3.7 SW 13 19 7 10 1020.2 1020.2 1.4
 
Date/Time
WST
Tmp

°C
App
Tmp
°C
Dew
Point
°C
Rel
Hum
%
Delta-T

°C
Wind Press
QNH
hPa
Press
MSL
hPa
Rain
since
9 am
mm
Dir
 
Spd
km/h
Gust
km/h
Spd
kts
Gust
kts
25/11:30pm 16.5 13.5 9.4 63 3.7 SW 15 24 8 13 1020.2 1020.2 1.4
25/11:00pm 16.0 14.0 10.1 68 3.1 WSW 11 13 6 7 1020.1 1020.1 1.4
25/10:30pm 15.9 13.9 10.2 69 3.0 SW 11 17 6 9 1020.0 1020.0 1.4
25/10:00pm 16.3 14.1 10.9 70 2.9 SW 13 20 7 11 1020.1 1020.1 1.4
25/09:30pm 16.5 14.1 11.3 71 2.8 SW 15 20 8 11 1020.1 1020.1 1.4
25/09:00pm 16.9 14.3 12.0 73 2.7 SW 17 26 9 14 1020.2 1020.2 1.4
25/08:30pm 17.5 14.5 12.6 73 2.7 SW 20 32 11 17 1020.1 1020.1 1.4
25/08:00pm 17.7 15.3 13.8 78 2.2 SW 19 28 10 15 1019.9 1019.9 1.4
25/07:30pm 17.4 15.2 14.4 82 1.7 WSW 19 26 10 14 1019.6 1019.6 1.4
25/07:00pm 18.1 16.2 14.1 77 2.3 WSW 17 24 9 13 1019.1 1019.1 1.4
25/06:30pm 17.8 16.4 14.5 81 1.9 SW 15 20 8 11 1018.9 1018.9 1.4
25/06:00pm 17.7 15.5 14.9 84 1.6 SW 20 28 11 15 1018.7 1018.7 1.4
25/05:37pm 17.5 16.7 16.1 91 0.8 SW 15 19 8 10 1018.4 1018.4 1.4
25/05:33pm 17.4 16.7 16.4 94 0.6 SW 15 22 8 12 1018.4 1018.4 1.4
25/05:30pm 17.5 16.4 16.3 93 0.7 SW 17 22 9 12 1018.4 1018.4 1.4
25/05:20pm 17.6 17.0 16.6 94 0.6 SW 15 20 8 11 1018.4 1018.4 1.2
25/05:19pm 17.7 17.0 16.5 93 0.7 WSW 15 22 8 12 1018.3 1018.3 1.2
25/05:15pm 17.5 16.5 16.5 94 0.6 SW 17 26 9 14 1018.2 1018.2 1.2
25/05:00pm 17.8 15.5 16.6 93 0.7 WSW 24 30 13 16 1018.2 1018.2 1.2
25/04:59pm 17.8 15.5 16.6 93 0.7 WSW 24 35 13 19 1018.2 1018.2 1.2
25/04:53pm 17.9 15.1 16.4 91 0.9 WSW 26 35 14 19 1018.1 1018.1 1.2
25/04:30pm 18.6 14.9 16.9 90 1.0 W 32 46 17 25 1018.1 1018.1 1.0
25/04:29pm 18.6 14.9 16.9 90 1.0 W 32 46 17 25 1018.1 1018.1 1.0
25/04:00pm 20.9 16.2 13.2 61 4.4 W 30 35 16 19 1018.0 1018.0 0.0
25/03:30pm 21.1 16.5 13.6 62 4.3 W 30 41 16 22 1018.0 1018.0 0.0
25/03:00pm 21.4 17.0 13.0 58 4.8 W 28 39 15 21 1018.0 1018.0 0.0
25/02:30pm 22.6 18.3 12.2 51 5.9 W 26 37 14 20 1018.0 1018.0 0.0
25/02:00pm 21.3 16.5 11.8 54 5.3 W 28 37 15 20 1018.0 1018.0 0.0
25/01:30pm 22.5 18.4 11.4 49 6.2 W 24 32 13 17 1018.0 1018.0 0.0
25/01:00pm 22.1 17.5 11.1 49 6.1 W 26 35 14 19 1018.0 1018.0 0.0
25/12:30pm 21.0 16.3 11.9 56 5.1 W 28 37 15 20 1018.2 1018.2 0.0
25/12:00pm 21.3 16.5 11.8 54 5.3 W 28 35 15 19 1018.3 1018.3 0.0
25/11:30am 21.5 17.6 12.1 55 5.3 W 24 33 13 18 1018.2 1018.2 0.0
25/11:00am 21.7 17.1 11.2 51 5.8 W 26 32 14 17 1018.3 1018.3 0.0
25/10:30am 20.9 16.7 11.1 53 5.4 W 24 33 13 18 1018.2 1018.2 0.0
25/10:00am 20.5 16.9 11.9 57 4.8 W 22 28 12 15 1018.2 1018.2 0.0
25/09:30am 20.9 17.4 10.9 52 5.5 WSW 20 35 11 19 1018.3 1018.3 0.0
25/09:00am 20.2 16.2 10.6 54 5.2 WSW 22 33 12 18 1018.1 1018.1 0.0
25/08:30am 20.5 16.2 10.8 53 5.3 WSW 24 32 13 17 1017.8 1017.8 0.0
25/08:00am 19.1 15.4 11.6 62 4.1 WSW 22 28 12 15 1017.5 1017.5 0.0
25/07:30am 19.1 16.6 12.3 64 3.8 WSW 17 24 9 13 1017.2 1017.2 0.0
25/07:00am 17.1 18.3 14.8 86 1.3 SE 2 7 1 4 1016.8 1016.8 0.0
25/06:30am 15.6 15.7 14.5 93 0.6 ENE 7 9 4 5 1016.7 1016.7 0.0
25/06:00am 15.4 16.8 14.5 94 0.5 CALM 0 0 0 0 1016.6 1016.6 0.0
25/05:30am 14.7 14.8 14.0 96 0.4 NNE 6 7 3 4 1016.0 1016.0 0.0
25/05:00am 14.7 15.1 13.6 93 0.6 N 4 6 2 3 1016.0 1016.0 0.0
25/04:30am 14.8 14.7 13.2 90 0.9 NNW 6 7 3 4 1016.0 1016.0 0.0
25/04:00am 12.8 12.3 11.9 94 0.5 NE 6 7 3 4 1015.6 1015.6 0.0
25/03:30am 11.9 11.9 11.1 95 0.4 E 2 7 1 4 1015.5 1015.5 0.0
25/03:00am 11.5 11.6 10.3 92 0.6 CALM 0 0 0 0 1015.5 1015.5 0.0
25/02:30am 11.7 11.1 10.5 92 0.6 ESE 4 6 2 3 1015.3 1015.3 0.0
25/02:00am 12.3 12.7 11.2 93 0.6 CALM 0 0 0 0 1015.4 1015.4 0.0
25/01:30am 11.4 10.4 10.2 92 0.6 ESE 6 7 3 4 1015.3 1015.3 0.0
25/01:00am 12.3 11.5 11.0 92 0.7 ESE 6 7 3 4 1015.6 1015.6 0.0
25/12:30am 12.9 12.3 11.8 93 0.6 ESE 6 7 3 4 1015.7 1015.7 0.0
25/12:00am 13.2 13.8 11.9 92 0.7 CALM 0 6 0 3 1015.8 1015.8 0.0
 
Date/Time
WST
Tmp

°C
App
Tmp
°C
Dew
Point
°C
Rel
Hum
%
Delta-T

°C
Wind Press
QNH
hPa
Press
MSL
hPa
Rain
since
9 am
mm
Dir
 
Spd
km/h
Gust
km/h
Spd
kts
Gust
kts
24/11:30pm 13.4 13.2 11.9 91 0.8 SSE 4 6 2 3 1015.9 1015.9 0.0
24/11:00pm 14.0 13.5 12.1 88 1.0 SSW 6 7 3 4 1016.0 1016.0 0.0
24/10:30pm 15.5 15.1 13.0 85 1.4 SSW 7 9 4 5 1016.0 1016.0 0.0
24/10:00pm 15.7 14.8 12.6 82 1.7 SSW 9 11 5 6 1016.2 1016.2 0.0
24/09:30pm 16.3 15.6 13.1 81 1.8 SSW 9 11 5 6 1016.2 1016.2 0.0
24/09:00pm 16.5 15.3 12.9 79 2.0 SW 11 13 6 7 1016.2 1016.2 0.0
24/08:30pm 17.1 16.3 12.8 76 2.4 SW 9 15 5 8 1016.2 1016.2 0.0
24/08:00pm 17.6 15.8 12.2 70 3.0 SW 13 17 7 9 1016.0 1016.0 0.0
24/07:30pm 18.0 16.9 11.8 67 3.4 SSW 9 13 5 7 1015.8 1015.8 0.0
24/07:00pm 18.8 16.7 11.3 61 4.1 SSW 13 20 7 11 1015.8 1015.8 0.0
24/06:30pm 19.5 17.3 10.9 57 4.7 SSW 13 20 7 11 1015.6 1015.6 0.0
24/06:00pm 20.7 18.0 10.4 51 5.6 SW 15 20 8 11 1015.5 1015.5 0.0
24/05:30pm 21.5 17.6 9.6 46 6.4 SW 20 28 11 15 1015.4 1015.4 0.0
24/05:00pm 22.6 18.8 9.9 44 6.9 SW 20 26 11 14 1015.1 1015.1 0.0
24/04:30pm 22.8 18.2 9.5 42 7.2 WSW 24 32 13 17 1015.0 1015.0 0.0
24/04:00pm 23.6 19.4 9.6 41 7.6 WSW 22 30 12 16 1014.8 1014.8 0.0
24/03:30pm 24.0 20.3 10.0 41 7.7 SW 20 26 11 14 1014.6 1014.6 0.0
24/03:00pm 24.0 20.4 9.7 40 7.8 WSW 19 26 10 14 1014.6 1014.6 0.0
24/02:30pm 24.3 20.7 10.6 42 7.6 SW 20 28 11 15 1014.9 1014.9 0.0
24/02:00pm 24.4 20.9 10.8 42 7.6 SW 20 26 11 14 1015.1 1015.1 0.0
24/01:30pm 24.7 21.9 11.2 42 7.6 SW 17 26 9 14 1015.5 1015.5 0.0
24/01:00pm 24.1 21.1 10.8 43 7.4 W 17 24 9 13 1015.7 1015.7 0.0
24/12:30pm 24.7 22.0 10.2 40 8.0 WSW 15 24 8 13 1016.0 1016.0 0.0
24/12:00pm 24.8 23.0 9.6 38 8.3 WNW 9 19 5 10 1016.3 1016.3 0.0
24/11:30am 24.3 19.8 10.1 40 7.8 SE 24 35 13 19 1016.4 1016.4 0.0
24/11:00am 23.5 21.9 10.2 43 7.3 ENE 9 13 5 7 1017.3 1017.3 0.0
24/10:30am 22.3 21.1 9.7 44 6.8 NE 6 17 3 9 1017.6 1017.6 0.0
24/10:00am 21.6 19.8 9.5 46 6.5 N 9 17 5 9 1017.9 1017.9 0.0
24/09:30am 20.6 19.3 9.8 50 5.8 NNE 7 13 4 7 1018.3 1018.3 0.0
24/09:00am 19.8 17.9 9.2 50 5.6 ENE 9 15 5 8 1018.3 1018.3 0.6
24/08:30am 18.7 16.6 9.8 56 4.7 SE 11 17 6 9 1018.1 1018.1 0.6
24/08:00am 18.1 15.9 9.5 57 4.5 E 11 15 6 8 1018.3 1018.3 0.6
24/07:30am 17.1 15.0 9.7 61 3.9 E 11 19 6 10 1018.2 1018.2 0.6
24/07:00am 15.4 14.9 11.9 79 1.9 E 6 11 3 6 1018.2 1018.2 0.6
24/06:30am 13.1 12.2 11.2 88 1.0 ESE 7 9 4 5 1018.1 1018.1 0.6
24/06:00am 12.3 10.9 10.8 90 0.8 ESE 9 11 5 6 1018.1 1018.1 0.6
24/05:30am 11.8 10.3 10.4 91 0.7 ESE 9 13 5 7 1017.8 1017.8 0.6
24/05:00am 11.7 9.8 10.5 92 0.6 SE 11 13 6 7 1017.6 1017.6 0.6
24/04:30am 12.3 9.7 10.6 89 0.9 ESE 15 19 8 10 1017.8 1017.8 0.6
24/04:13am 9.9 9.0 9.1 95 0.4 ESE 4 11 2 6 1017.7 1017.7 0.6
24/04:00am 9.7 9.1 8.9 95 0.4 SE 2 6 1 3 1017.8 1017.8 0.6
24/03:54am 9.8 8.8 8.8 93 0.5 SE 4 6 2 3 1017.8 1017.8 0.6
24/03:30am 10.3 10.2 9.5 95 0.4 CALM 0 6 0 3 1017.7 1017.7 0.6
24/03:10am 9.9 9.7 9.1 95 0.4 CALM 0 0 0 0 1017.8 1017.8 0.6
24/03:00am 9.8 9.6 9.0 95 0.4 CALM 0 0 0 0 1017.7 1017.7 0.6
24/02:52am 10.0 9.8 9.0 93 0.5 CALM 0 0 0 0 1017.8 1017.8 0.6
24/02:30am 10.4 10.0 9.8 96 0.3 SE 2 6 1 3 1017.9 1017.9 0.6
24/02:00am 9.8 8.4 8.8 93 0.5 S 6 7 3 4 1017.7 1017.7 0.6
24/01:30am 10.8 9.7 10.0 95 0.4 S 6 7 3 4 1017.8 1017.8 0.6
24/01:00am 10.6 9.7 9.4 92 0.6 S 4 6 2 3 1017.8 1017.8 0.6
24/12:30am 11.3 11.4 10.1 92 0.6 CALM 0 4 0 2 1017.8 1017.8 0.6
24/12:00am 11.8 10.9 10.8 94 0.5 S 6 7 3 4 1017.9 1017.9 0.6
 
Date/Time
WST
Tmp

°C
App
Tmp
°C
Dew
Point
°C
Rel
Hum
%
Delta-T

°C
Wind Press
QNH
hPa
Press
MSL
hPa
Rain
since
9 am
mm
Dir
 
Spd
km/h
Gust
km/h
Spd
kts
Gust
kts
23/11:30pm 11.6 10.4 10.2 91 0.7 S 7 7 4 4 1018.0 1018.0 0.6
23/11:00pm 12.4 11.4 11.1 92 0.7 S 7 9 4 5 1018.2 1018.2 0.6
23/10:30pm 13.4 12.6 11.7 89 0.9 S 7 7 4 4 1018.4 1018.4 0.6
23/10:00pm 14.8 14.2 12.4 85 1.3 S 7 9 4 5 1018.6 1018.6 0.6
23/09:30pm 16.0 15.3 13.1 83 1.6 S 9 13 5 7 1018.6 1018.6 0.6
23/09:00pm 15.9 15.1 12.8 82 1.7 SSW 9 11 5 6 1018.5 1018.5 0.6
23/08:30pm 16.1 15.2 12.7 80 1.9 SSW 9 11 5 6 1018.4 1018.4 0.6
23/08:00pm 16.6 15.6 12.4 76 2.3 SSW 9 13 5 7 1018.3 1018.3 0.6
23/07:30pm 17.0 15.7 12.5 75 2.5 SSW 11 15 6 8 1018.1 1018.1 0.6
23/07:00pm 17.4 16.4 12.3 72 2.8 SSW 9 15 5 8 1017.9 1017.9 0.6
23/06:30pm 18.1 15.5 12.1 68 3.3 SSW 17 24 9 13 1017.7 1017.7 0.6
23/06:00pm 19.0 15.9 11.7 62 4.0 SW 19 26 10 14 1017.3 1017.3 0.6
23/05:30pm 19.8 16.8 11.9 60 4.4 SSW 19 26 10 14 1017.0 1017.0 0.6
23/05:00pm 20.5 16.6 12.1 58 4.7 SW 24 32 13 17 1016.7 1016.7 0.6
23/04:30pm 20.5 17.4 12.1 58 4.7 SSW 20 28 11 15 1016.6 1016.6 0.6
23/04:00pm 20.3 17.4 12.9 62 4.2 SSW 20 30 11 16 1016.4 1016.4 0.6
23/03:30pm 22.5 18.3 12.5 53 5.7 WSW 26 35 14 19 1016.3 1016.3 0.6
23/03:00pm 21.7 17.6 11.4 52 5.7 WSW 24 33 13 18 1016.4 1016.4 0.6
23/02:30pm 22.8 19.4 12.4 52 5.9 WSW 22 32 12 17 1016.4 1016.4 0.6
23/02:00pm 21.8 18.4 12.4 55 5.3 WSW 22 32 12 17 1016.4 1016.4 0.6
23/01:30pm 22.2 18.7 12.3 53 5.6 SW 22 30 12 16 1016.3 1016.3 0.6
23/01:00pm 22.3 18.7 12.0 52 5.8 SW 22 33 12 18 1016.3 1016.3 0.6
23/12:30pm 21.8 18.6 13.1 57 5.0 SW 22 33 12 18 1016.3 1016.3 0.6
23/12:00pm 22.1 18.3 12.4 54 5.5 WSW 24 32 13 17 1016.4 1016.4 0.6
23/11:30am 21.8 18.2 12.9 57 5.1 WSW 24 32 13 17 1016.4 1016.4 0.6
23/11:00am 21.1 17.2 13.4 61 4.4 WSW 26 35 14 19 1016.5 1016.5 0.6
23/10:30am 21.6 18.7 14.0 62 4.4 WSW 22 28 12 15 1016.4 1016.4 0.6
23/10:00am 18.8 15.9 13.9 73 2.8 WSW 22 33 12 18 1016.4 1016.4 0.6

Latest Capital City Observations: Canberra | Sydney | Melbourne | Brisbane | Adelaide | Perth | Hobart | Darwin

Other Formats:

Comma delimited format used in spreadsheet applications
http://www.bom.gov.au/fwo/IDW60901/IDW60901.94609.axf

JavaScript Object Notation format (JSON) in row-major order
http://www.bom.gov.au/fwo/IDW60901/IDW60901.94609.json